AirNav   Everest Fuels
 
 946 users online  

1XS8 Pinon Ranch Airport
Brackettville, Texas, USA

GOING TO BRACKETTVILLE?


FAA INFORMATION EFFECTIVE 10 SEPTEMBER 2020

Location

FAA Identifier: 1XS8
Lat/Long: 29-38-02.7000N 100-22-27.7000W
29-38.045000N 100-22.461667W
29.6340833,-100.3743611
(estimated)
Elevation: 1640 ft. / 500 m (estimated)
Variation: 07E (1995)
From city: 19 miles S of BRACKETTVILLE, TX
Time zone: UTC -5 (UTC -6 during Standard Time)
Zip code: 78828

Airport Operations

Airport use: Private use. Permission required prior to landing
Activation date: 02/1998
Control tower: no
ARTCC: HOUSTON CENTER
FSS: SAN ANGELO FLIGHT SERVICE STATION
Attendance: UNATNDD
Wind indicator: yes
Segmented circle: no

Nearby radio navigation aids

VOR radial/distance  VOR name  Freq  Var
RSGr180/23.2ROCKSPRINGS VORTAC114.5510E
DLFr045/26.4LAUGHLIN VORTAC114.4007E

 
NDB name  Hdg/Dist  Freq  Var  ID
LA FONDA RANCH018/28.726909EBRX -... .-. -..-
SPOFFORD357/29.535608EPFO .--. ..-. ---

Airport Services

Runway Information

Runway 16/34

Dimensions: 4500 x 50 ft. / 1372 x 15 m
Surface: asphalt
RUNWAY 16  RUNWAY 34
Traffic pattern: leftleft

Airport Ownership and Management from official FAA records

Ownership: Privately-owned
Owner: ROSEWOOD RANCHES INC
100 CRESCENT CT SUITE 1700
DALLAS, TX 75201
Phone 214-871-8400
Manager: HARRY WHITE
PO BOX 697
BRACKETVILLE, TX 78832
Phone 210-563-2279

Additional Remarks

FOR CD CTC LAUGHLIN APCH AT 830-298-4350, WHEN APCH CLSD CTC HOUSTON ARTCC AT 281-230-5622.

Instrument Procedures

There are no published instrument procedures at 1XS8.

Some nearby airports with instrument procedures:

KECU - Edwards County Airport (21 nm NE)
KDLF - Laughlin AFB Airport (27 nm SW)
KDRT - Del Rio International Airport (33 nm SW)
KUVA - Garner Field Airport (42 nm SE)
5T9 - Maverick County Memorial International Airport (47 nm S)
 
Loc | Ops | Rwys | IFR | FBO | Links
Com | Nav | Svcs | Stats | Notes
Area around 1XS8 (Pinon Ranch Airport)
 
Road maps at: MapQuest Bing Google
 
Aerial photo
No photo
 
Sectional chart

 
Airport distance calculator
Flying to Pinon Ranch Airport? Find the distance to fly.

From to 1XS8

Sunrise and sunset
Times for 19-Sep-2020
 Local
(UTC-5)
 Zulu
(UTC)
Morning civil twilight07:0612:06
Sunrise07:3012:30
Sunset19:4000:40
Evening civil twilight20:0401:04

Current date and time
Zulu (UTC)  20-Sep-2020 01:58:08
Local (UTC-5)  19-Sep-2020 20:58:08
 
METAR
KECU 
21nm NE 
200135Z AUTO 07005KT 10SM OVC065 22/13 A3015 RMK AO2
KDLF 
26nm SW 
200056Z AUTO 35003KT 10SM CLR 27/17 A3002 RMK AO2 SLP156 T02710167 CHINO RWY31 $
KDRT 
33nm SW 
200153Z AUTO 01005KT 9SM CLR 27/16 A3002 RMK AO2 SLP150 T02720156 TSNO
KUVA 
42nm SE 
200135Z AUTO 06005KT 10SM CLR 25/13 A3005 RMK AO2 T02480130
TAF
NOTAMs
Click for the latest NOTAMs
NOTAMs are issued by the DoD/FAA and will open in a separate window not controlled by AirNav.

 

 
 

Would you like to see your business listed on this page?

 If your business provides an interesting product or service to pilots, flight crews, aircraft, or users of the Pinon Ranch Airport, you should consider listing it here.  To start the listing process, click on the button below
 
Add a business
 

Other Pages about Pinon Ranch Airport

Update a link
 
Copyright © AirNav, LLC. All rights reserved. Privacy Policy  Contact